createdAt,value
2016-10-28T00:00:40.901Z,0
2016-10-28T00:01:40.848Z,0
2016-10-28T00:02:40.809Z,0
2016-10-28T00:03:40.793Z,0
2016-10-28T00:04:40.766Z,0
2016-10-28T00:05:40.783Z,0
2016-10-28T00:06:40.767Z,0
2016-10-28T00:07:40.738Z,0
2016-10-28T00:08:40.761Z,0
2016-10-28T00:09:40.750Z,0
2016-10-28T00:10:40.757Z,0
2016-10-28T00:11:40.691Z,0
2016-10-28T00:12:40.696Z,0
2016-10-28T00:13:40.685Z,0
2016-10-28T00:14:40.659Z,0
2016-10-28T00:15:40.681Z,0
2016-10-28T00:16:40.644Z,0
2016-10-28T00:17:40.643Z,0
2016-10-28T00:18:40.586Z,0
2016-10-28T00:19:40.915Z,0
2016-10-28T00:20:40.610Z,0
2016-10-28T00:21:40.894Z,0
2016-10-28T00:22:40.592Z,0
2016-10-28T00:23:40.574Z,0
2016-10-28T00:24:40.563Z,0
2016-10-28T00:25:40.538Z,0
2016-10-28T00:26:40.531Z,0
2016-10-28T00:27:40.464Z,0
2016-10-28T00:28:40.484Z,0
2016-10-28T00:29:40.466Z,0
2016-10-28T00:30:40.444Z,0
2016-10-28T00:31:40.447Z,0
2016-10-28T00:32:40.459Z,0
2016-10-28T00:33:40.410Z,0
2016-10-28T00:34:40.422Z,0
2016-10-28T00:35:40.376Z,0
2016-10-28T00:36:40.349Z,0
2016-10-28T00:37:40.392Z,0
2016-10-28T00:38:40.325Z,0
2016-10-28T00:39:40.348Z,0
2016-10-28T00:40:40.325Z,0
2016-10-28T00:41:40.316Z,0
2016-10-28T00:42:40.265Z,0
2016-10-28T00:43:40.281Z,0
2016-10-28T00:44:40.296Z,0
2016-10-28T00:45:40.271Z,0
2016-10-28T00:46:40.259Z,0
2016-10-28T00:47:40.272Z,0
2016-10-28T00:48:40.232Z,0
2016-10-28T00:49:40.213Z,0
2016-10-28T00:50:40.196Z,0
2016-10-28T00:51:40.225Z,0
2016-10-28T00:52:40.208Z,0
2016-10-28T00:53:40.182Z,0
2016-10-28T00:54:40.149Z,0
2016-10-28T00:55:40.173Z,0
2016-10-28T00:56:40.138Z,0
2016-10-28T00:57:40.098Z,0
2016-10-28T00:58:40.124Z,0
2016-10-28T00:59:40.063Z,0
2016-10-28T01:00:40.072Z,0
2016-10-28T01:01:40.083Z,0
2016-10-28T01:02:40.031Z,0
2016-10-28T01:03:40.056Z,0
2016-10-28T01:04:40.030Z,0
2016-10-28T01:05:40.018Z,0
2016-10-28T01:06:39.979Z,0
2016-10-28T01:07:39.971Z,0
2016-10-28T01:08:40.283Z,0
2016-10-28T01:09:39.947Z,0
2016-10-28T01:10:39.900Z,0
2016-10-28T01:11:39.980Z,0
2016-10-28T01:12:39.918Z,0
2016-10-28T01:13:39.894Z,0
2016-10-28T01:14:39.870Z,0
2016-10-28T01:15:39.903Z,0
2016-10-28T01:16:39.870Z,0
2016-10-28T01:17:39.876Z,0
2016-10-28T01:18:39.851Z,0
2016-10-28T01:19:39.842Z,0
2016-10-28T01:20:39.809Z,0
2016-10-28T01:21:39.816Z,0
2016-10-28T01:22:39.777Z,0
2016-10-28T01:23:39.790Z,0
2016-10-28T01:24:39.821Z,0
2016-10-28T01:25:39.769Z,0
2016-10-28T01:26:39.742Z,0
2016-10-28T01:27:39.713Z,0
2016-10-28T01:28:39.697Z,0
2016-10-28T01:29:39.721Z,0
2016-10-28T01:30:39.723Z,0
2016-10-28T01:31:39.727Z,0
2016-10-28T01:32:39.656Z,0
2016-10-28T01:33:39.671Z,0
2016-10-28T01:34:39.662Z,0
2016-10-28T01:35:39.655Z,0
2016-10-28T01:36:39.619Z,0
2016-10-28T01:37:39.625Z,0
2016-10-28T01:38:39.612Z,0
2016-10-28T01:39:39.582Z,0
2016-10-28T01:40:39.611Z,0
2016-10-28T01:41:39.579Z,0
2016-10-28T01:42:39.538Z,0
2016-10-28T01:43:39.542Z,0
2016-10-28T01:44:39.587Z,0
2016-10-28T01:45:39.516Z,0
2016-10-28T01:46:39.472Z,0
2016-10-28T01:47:39.481Z,0
2016-10-28T01:48:39.501Z,0
2016-10-28T01:49:39.505Z,0
2016-10-28T01:50:39.416Z,0
2016-10-28T01:51:39.523Z,0
2016-10-28T01:52:39.435Z,0
2016-10-28T01:53:39.457Z,0
2016-10-28T01:54:39.438Z,0
2016-10-28T01:55:39.399Z,0
2016-10-28T01:56:39.413Z,0
2016-10-28T01:57:39.368Z,0
2016-10-28T01:58:39.333Z,0
2016-10-28T01:59:39.369Z,0
2016-10-28T02:00:39.322Z,0
2016-10-28T02:01:39.330Z,0
2016-10-28T02:02:39.303Z,0
2016-10-28T02:03:39.272Z,0
2016-10-28T02:04:39.305Z,0
2016-10-28T02:05:39.274Z,0
2016-10-28T02:06:39.303Z,0
2016-10-28T02:07:39.277Z,0
2016-10-28T02:08:39.246Z,0
2016-10-28T02:09:39.265Z,0
2016-10-28T02:10:39.189Z,0
2016-10-28T02:11:39.223Z,0
2016-10-28T02:12:39.194Z,0
2016-10-28T02:13:39.217Z,0
2016-10-28T02:14:39.240Z,0
2016-10-28T02:15:39.134Z,0
2016-10-28T02:16:39.176Z,0
2016-10-28T02:17:39.134Z,0
2016-10-28T02:18:39.108Z,0
2016-10-28T02:19:39.155Z,0
2016-10-28T02:20:39.078Z,0
2016-10-28T02:21:39.041Z,0
2016-10-28T02:22:39.101Z,0
2016-10-28T02:23:39.059Z,0
2016-10-28T02:24:39.029Z,0
2016-10-28T02:25:39.015Z,0
2016-10-28T02:26:39.037Z,0
2016-10-28T02:27:39.041Z,0
2016-10-28T02:28:39.024Z,0
2016-10-28T02:29:38.999Z,0
2016-10-28T02:30:38.970Z,0
2016-10-28T02:31:38.941Z,0
2016-10-28T02:32:39.028Z,0
2016-10-28T02:33:38.925Z,0
2016-10-28T02:34:38.895Z,0
2016-10-28T02:35:38.906Z,0
2016-10-28T02:36:38.892Z,0
2016-10-28T02:37:38.910Z,0
2016-10-28T02:38:38.907Z,0
2016-10-28T02:39:38.919Z,0
2016-10-28T02:40:38.870Z,0
2016-10-28T02:41:38.868Z,0
2016-10-28T02:42:38.853Z,0
2016-10-28T02:43:38.822Z,0
2016-10-28T02:44:38.785Z,0
2016-10-28T02:45:38.779Z,0
2016-10-28T02:46:38.810Z,0
2016-10-28T02:47:38.783Z,0
2016-10-28T02:48:38.736Z,0
2016-10-28T02:49:38.778Z,0
2016-10-28T02:50:38.713Z,0
2016-10-28T02:51:38.729Z,0
2016-10-28T02:52:38.765Z,0
2016-10-28T02:53:38.746Z,0
2016-10-28T02:54:38.695Z,0
2016-10-28T02:55:38.691Z,0
2016-10-28T02:56:38.636Z,0
2016-10-28T02:57:38.633Z,0
2016-10-28T02:58:38.653Z,0
2016-10-28T02:59:38.622Z,0
2016-10-28T03:00:38.929Z,0
2016-10-28T03:01:38.616Z,0
2016-10-28T03:02:38.600Z,0
2016-10-28T03:03:38.649Z,0
2016-10-28T03:04:38.592Z,0
2016-10-28T03:05:38.528Z,0
2016-10-28T03:06:38.549Z,0
2016-10-28T03:07:38.513Z,0
2016-10-28T03:08:38.549Z,0
2016-10-28T03:09:38.516Z,0
2016-10-28T03:10:38.490Z,0
2016-10-28T03:11:38.471Z,0
2016-10-28T03:12:38.481Z,0
2016-10-28T03:13:38.452Z,0
2016-10-28T03:14:38.441Z,0
2016-10-28T03:15:38.434Z,0
2016-10-28T03:16:38.443Z,0
2016-10-28T03:17:38.444Z,0
2016-10-28T03:18:38.398Z,0
2016-10-28T03:19:38.396Z,0
2016-10-28T03:20:38.367Z,0
2016-10-28T03:21:38.325Z,0
2016-10-28T03:22:38.302Z,0
2016-10-28T03:23:38.312Z,0
2016-10-28T03:24:38.275Z,0
2016-10-28T03:25:38.293Z,0
2016-10-28T03:26:38.280Z,0
2016-10-28T03:27:38.288Z,0
2016-10-28T03:28:38.285Z,0
2016-10-28T03:29:38.240Z,0
2016-10-28T03:30:38.293Z,0
2016-10-28T03:31:38.239Z,0
2016-10-28T03:32:38.214Z,0
2016-10-28T03:33:38.196Z,0
2016-10-28T03:34:38.195Z,0
2016-10-28T03:35:38.200Z,0
2016-10-28T03:36:38.165Z,0
2016-10-28T03:37:38.132Z,0
2016-10-28T03:38:38.161Z,0
2016-10-28T03:39:38.150Z,0
2016-10-28T03:40:38.135Z,0
2016-10-28T03:41:38.099Z,0
2016-10-28T03:42:38.068Z,0
2016-10-28T03:43:38.076Z,0
2016-10-28T03:44:38.038Z,0
2016-10-28T03:45:38.039Z,0
2016-10-28T03:46:38.027Z,0
2016-10-28T03:47:38.034Z,0
2016-10-28T03:48:38.002Z,0
2016-10-28T03:49:38.004Z,0
2016-10-28T03:50:37.964Z,0
2016-10-28T03:51:37.939Z,0
2016-10-28T03:52:37.927Z,0
2016-10-28T03:53:37.955Z,0
2016-10-28T03:54:37.882Z,0
2016-10-28T03:55:37.917Z,0
2016-10-28T03:56:37.883Z,0
2016-10-28T03:57:37.891Z,0
2016-10-28T03:58:37.894Z,0
2016-10-28T03:59:37.855Z,0
2016-10-28T04:00:37.881Z,0
2016-10-28T04:01:37.854Z,0
2016-10-28T04:02:37.820Z,0
2016-10-28T04:03:37.826Z,0
2016-10-28T04:04:37.752Z,0
2016-10-28T04:05:37.802Z,0
2016-10-28T04:06:37.757Z,0
2016-10-28T04:07:37.771Z,0
2016-10-28T04:08:37.782Z,0
2016-10-28T04:09:37.737Z,0
2016-10-28T04:10:37.718Z,0
2016-10-28T04:11:37.760Z,0
2016-10-28T04:12:37.689Z,0
2016-10-28T04:13:37.682Z,0
2016-10-28T04:14:37.779Z,0
2016-10-28T04:15:37.658Z,0
2016-10-28T04:16:37.637Z,0
2016-10-28T04:17:37.603Z,0
2016-10-28T04:18:37.600Z,0
2016-10-28T04:19:37.643Z,0
2016-10-28T04:20:37.547Z,0
2016-10-28T04:21:37.557Z,0
2016-10-28T04:22:37.614Z,0
2016-10-28T04:23:37.537Z,0
2016-10-28T04:24:37.579Z,0
2016-10-28T04:25:37.553Z,0
2016-10-28T04:26:37.539Z,0
2016-10-28T04:27:37.516Z,0
2016-10-28T04:28:37.512Z,0
2016-10-28T04:29:37.504Z,0
2016-10-28T04:30:37.443Z,0
2016-10-28T04:31:37.452Z,0
2016-10-28T04:32:37.463Z,0
2016-10-28T04:33:37.501Z,0
2016-10-28T04:34:37.401Z,0
2016-10-28T04:35:37.433Z,0
2016-10-28T04:36:37.376Z,0
2016-10-28T04:37:37.421Z,0
2016-10-28T04:38:37.397Z,0
2016-10-28T04:39:37.424Z,0
2016-10-28T04:40:37.352Z,0
2016-10-28T04:41:37.409Z,0
2016-10-28T04:42:37.344Z,0
2016-10-28T04:43:37.354Z,0
2016-10-28T04:44:37.278Z,0
2016-10-28T04:45:37.316Z,0
2016-10-28T04:46:37.248Z,0
2016-10-28T04:47:37.318Z,0
2016-10-28T04:48:37.256Z,0
2016-10-28T04:49:37.257Z,0
2016-10-28T04:50:37.213Z,0
2016-10-28T04:51:37.247Z,0
2016-10-28T04:52:37.250Z,0
2016-10-28T04:53:37.218Z,0
2016-10-28T04:54:37.243Z,0
2016-10-28T04:55:37.188Z,0
2016-10-28T04:56:37.214Z,0
2016-10-28T04:57:37.161Z,0
2016-10-28T04:58:37.121Z,0
2016-10-28T04:59:37.078Z,0
2016-10-28T05:00:37.134Z,0
2016-10-28T05:01:37.076Z,0
2016-10-28T05:02:37.100Z,0
2016-10-28T05:03:37.057Z,0
2016-10-28T05:04:37.115Z,0
2016-10-28T05:05:37.064Z,0
2016-10-28T05:06:37.039Z,0
2016-10-28T05:07:37.031Z,0
2016-10-28T05:08:37.034Z,0
2016-10-28T05:09:37.038Z,0
2016-10-28T05:10:37.001Z,0
2016-10-28T05:11:36.964Z,0
2016-10-28T05:12:37.012Z,0
2016-10-28T05:13:36.950Z,0
2016-10-28T05:14:36.933Z,0
2016-10-28T05:15:36.891Z,0
2016-10-28T05:16:36.912Z,0
2016-10-28T05:17:36.934Z,0
2016-10-28T05:18:36.897Z,0
2016-10-28T05:19:36.879Z,0
2016-10-28T05:20:37.008Z,0
2016-10-28T05:21:36.895Z,0
2016-10-28T05:22:36.910Z,0
2016-10-28T05:23:36.874Z,0
2016-10-28T05:24:36.838Z,0
2016-10-28T05:25:36.807Z,0
2016-10-28T05:26:36.798Z,0
2016-10-28T05:27:36.804Z,0
2016-10-28T05:28:36.804Z,0
2016-10-28T05:29:36.780Z,0
2016-10-28T05:30:36.829Z,0
2016-10-28T05:31:36.735Z,0
2016-10-28T05:32:36.775Z,0
2016-10-28T05:33:36.796Z,0
2016-10-28T05:34:36.761Z,0
2016-10-28T05:35:36.734Z,0
2016-10-28T05:36:36.697Z,5
2016-10-28T05:37:36.697Z,5
2016-10-28T05:38:36.642Z,5
2016-10-28T05:39:36.652Z,5
2016-10-28T05:40:36.669Z,5
2016-10-28T05:41:36.620Z,5
2016-10-28T05:42:36.629Z,10
2016-10-28T05:43:36.580Z,10
2016-10-28T05:44:36.611Z,10
2016-10-28T05:45:36.649Z,15
2016-10-28T05:46:36.569Z,15
2016-10-28T05:47:36.566Z,20
2016-10-28T05:48:36.549Z,20
2016-10-28T05:49:36.533Z,20
2016-10-28T05:50:36.576Z,25
2016-10-28T05:51:36.533Z,25
2016-10-28T05:52:36.507Z,30
2016-10-28T05:53:36.520Z,30
2016-10-28T05:54:36.527Z,40
2016-10-28T05:55:36.520Z,40
2016-10-28T05:56:36.484Z,55
2016-10-28T05:57:36.451Z,65
2016-10-28T05:58:36.442Z,60
2016-10-28T05:59:36.422Z,55
2016-10-28T06:00:36.418Z,65
2016-10-28T06:01:36.706Z,85
2016-10-28T06:02:36.390Z,105
2016-10-28T06:03:36.350Z,115
2016-10-28T06:04:36.347Z,125
2016-10-28T06:05:36.327Z,135
2016-10-28T06:06:36.312Z,145
2016-10-28T06:07:36.301Z,150
2016-10-28T06:08:36.379Z,155
2016-10-28T06:09:36.321Z,160
2016-10-28T06:10:36.275Z,170
2016-10-28T06:11:36.285Z,180
2016-10-28T06:12:36.301Z,190
2016-10-28T06:13:36.574Z,200
2016-10-28T06:14:36.241Z,215
2016-10-28T06:15:36.292Z,220
2016-10-28T06:16:36.266Z,230
2016-10-28T06:17:36.222Z,230
2016-10-28T06:18:36.207Z,235
2016-10-28T06:19:36.198Z,240
2016-10-28T06:20:36.198Z,255
2016-10-28T06:21:36.185Z,260
2016-10-28T06:22:36.193Z,260
2016-10-28T06:23:36.163Z,275
2016-10-28T06:24:36.149Z,275
2016-10-28T06:25:36.121Z,280
2016-10-28T06:26:36.408Z,305
2016-10-28T06:27:36.114Z,300
2016-10-28T06:28:36.129Z,310
2016-10-28T06:29:36.059Z,310
2016-10-28T06:30:36.104Z,335
2016-10-28T06:31:36.051Z,355
2016-10-28T06:32:36.063Z,365
2016-10-28T06:33:36.019Z,375
2016-10-28T06:34:36.029Z,395
2016-10-28T06:35:36.046Z,405
2016-10-28T06:36:36.012Z,405
2016-10-28T06:37:36.030Z,420
2016-10-28T06:38:35.960Z,425
2016-10-28T06:39:35.951Z,425
2016-10-28T06:40:35.994Z,450
2016-10-28T06:41:35.979Z,485
2016-10-28T06:42:35.997Z,480
2016-10-28T06:43:35.982Z,485
2016-10-28T06:44:35.946Z,495
2016-10-28T06:45:35.946Z,495
2016-10-28T06:46:35.935Z,530
2016-10-28T06:47:35.935Z,550
2016-10-28T06:48:35.884Z,555
2016-10-28T06:49:35.877Z,565
2016-10-28T06:50:35.878Z,570
2016-10-28T06:51:35.838Z,580
2016-10-28T06:52:35.886Z,550
2016-10-28T06:53:35.859Z,525
2016-10-28T06:54:35.846Z,535
2016-10-28T06:55:35.847Z,585
2016-10-28T06:56:35.857Z,620
2016-10-28T06:57:35.814Z,645
2016-10-28T06:58:35.789Z,670
2016-10-28T06:59:35.826Z,710
2016-10-28T07:00:35.823Z,755
2016-10-28T07:01:35.782Z,765
2016-10-28T07:02:35.831Z,785
2016-10-28T07:03:35.788Z,810
2016-10-28T07:04:35.772Z,845
2016-10-28T07:05:35.762Z,875
2016-10-28T07:06:35.738Z,895
2016-10-28T07:07:35.744Z,885
2016-10-28T07:08:35.759Z,905
2016-10-28T07:09:35.731Z,930
2016-10-28T07:10:35.693Z,925
2016-10-28T07:11:35.766Z,1005
2016-10-28T07:12:36.026Z,1070
2016-10-28T07:13:35.692Z,1080
2016-10-28T07:14:35.672Z,1020
2016-10-28T07:15:35.639Z,740
2016-10-28T07:16:35.647Z,705
2016-10-28T07:17:35.650Z,710
2016-10-28T07:18:35.669Z,730
2016-10-28T07:19:35.685Z,745
2016-10-28T07:20:35.651Z,880
2016-10-28T07:21:35.614Z,1120
2016-10-28T07:22:35.642Z,1255
2016-10-28T07:23:35.638Z,1230
2016-10-28T07:24:35.625Z,1120
2016-10-28T07:25:35.614Z,1095
2016-10-28T07:26:35.538Z,1110
2016-10-28T07:27:35.580Z,1055
2016-10-28T07:28:35.622Z,1025
2016-10-28T07:29:35.606Z,1035
2016-10-28T07:30:35.571Z,1210
2016-10-28T07:31:35.560Z,1315
2016-10-28T07:32:35.575Z,1305
2016-10-28T07:33:35.540Z,1270
2016-10-28T07:34:35.573Z,1270
2016-10-28T07:35:35.522Z,1325
2016-10-28T07:36:35.558Z,1285
2016-10-28T07:37:35.478Z,1285
2016-10-28T07:38:35.460Z,1215
2016-10-28T07:39:35.508Z,1000
2016-10-28T07:40:35.525Z,1040
2016-10-28T07:41:35.448Z,1025
2016-10-28T07:42:35.492Z,990
2016-10-28T07:43:35.508Z,970
2016-10-28T07:44:35.476Z,960
2016-10-28T07:45:35.422Z,995
2016-10-28T07:46:35.454Z,1000
2016-10-28T07:47:35.418Z,1150
2016-10-28T07:48:35.458Z,1195
2016-10-28T07:49:35.415Z,1420
2016-10-28T07:50:35.441Z,1560
2016-10-28T07:51:35.408Z,1430
2016-10-28T07:52:35.471Z,1455
2016-10-28T07:53:35.370Z,1450
2016-10-28T07:54:35.418Z,1490
2016-10-28T07:55:35.378Z,1655
2016-10-28T07:56:35.360Z,1630
2016-10-28T07:57:35.385Z,1580
2016-10-28T07:58:35.364Z,1650
2016-10-28T07:59:35.348Z,1680
2016-10-28T08:00:35.340Z,1685
2016-10-28T08:01:35.345Z,1540
2016-10-28T08:02:35.400Z,1395
2016-10-28T08:03:35.363Z,1290
2016-10-28T08:04:35.316Z,1360
2016-10-28T08:05:35.310Z,1505
2016-10-28T08:06:35.301Z,1565
2016-10-28T08:07:35.322Z,1555
2016-10-28T08:08:35.302Z,1480
2016-10-28T08:09:35.287Z,1285
2016-10-28T08:10:35.310Z,1335
2016-10-28T08:11:35.629Z,1595
2016-10-28T08:12:35.284Z,1800
2016-10-28T08:13:35.330Z,1910
2016-10-28T08:14:35.340Z,1725
2016-10-28T08:15:35.319Z,1540
2016-10-28T08:16:35.206Z,1640
2016-10-28T08:17:35.255Z,1695
2016-10-28T08:18:35.265Z,1685
2016-10-28T08:19:35.258Z,1750
2016-10-28T08:20:35.238Z,1700
2016-10-28T08:21:35.477Z,1790
2016-10-28T08:22:35.202Z,1730
2016-10-28T08:23:35.509Z,1860
2016-10-28T08:24:35.258Z,1900
2016-10-28T08:25:35.248Z,1810
2016-10-28T08:26:35.230Z,1835
2016-10-28T08:27:35.543Z,1790
2016-10-28T08:28:35.203Z,1750
2016-10-28T08:29:35.206Z,1785
2016-10-28T08:30:35.213Z,1950
2016-10-28T08:31:35.167Z,2190
2016-10-28T08:32:35.143Z,2145
2016-10-28T08:33:35.125Z,1740
2016-10-28T08:34:35.151Z,1545
2016-10-28T08:35:35.157Z,1325
2016-10-28T08:36:35.143Z,1245
2016-10-28T08:37:35.094Z,1415
2016-10-28T08:38:35.104Z,1825
2016-10-28T08:39:35.125Z,2035
2016-10-28T08:40:35.158Z,2105
2016-10-28T08:41:35.449Z,2180
2016-10-28T08:42:35.166Z,2060
2016-10-28T08:43:35.422Z,1990
2016-10-28T08:44:35.070Z,1825
2016-10-28T08:45:35.268Z,1740
2016-10-28T08:46:35.108Z,1650
2016-10-28T08:47:35.089Z,1795
2016-10-28T08:48:35.073Z,1910
2016-10-28T08:49:35.048Z,1855
2016-10-28T08:50:35.063Z,1700
2016-10-28T08:51:35.068Z,1705
2016-10-28T08:52:35.063Z,1800
2016-10-28T08:53:35.077Z,1800
2016-10-28T08:54:35.134Z,1820
2016-10-28T08:55:35.057Z,1895
2016-10-28T08:56:35.029Z,1945
2016-10-28T08:57:35.007Z,1990
2016-10-28T08:58:35.018Z,1830
2016-10-28T08:59:34.992Z,1900
2016-10-28T09:00:34.974Z,2070
2016-10-28T09:01:34.974Z,2045
2016-10-28T09:02:35.002Z,2070
2016-10-28T09:03:35.042Z,2070
2016-10-28T09:04:34.932Z,2020
2016-10-28T09:05:34.993Z,1905
2016-10-28T09:06:34.968Z,1780
2016-10-28T09:07:34.961Z,2025
2016-10-28T09:08:34.953Z,2455
2016-10-28T09:09:34.922Z,2490
2016-10-28T09:10:34.954Z,2580
2016-10-28T09:11:34.924Z,2645
2016-10-28T09:12:34.943Z,2265
2016-10-28T09:13:34.969Z,2125
2016-10-28T09:14:35.103Z,1975
2016-10-28T09:15:34.921Z,1820
2016-10-28T09:16:34.909Z,1820
2016-10-28T09:17:35.082Z,2015
2016-10-28T09:18:34.889Z,2260
2016-10-28T09:19:34.914Z,2560
2016-10-28T09:20:34.877Z,2535
2016-10-28T09:21:34.869Z,2020
2016-10-28T09:22:34.910Z,1680
2016-10-28T09:23:34.840Z,1455
2016-10-28T09:24:34.838Z,1520
2016-10-28T09:25:34.890Z,1570
2016-10-28T09:26:34.876Z,1795
2016-10-28T09:27:34.849Z,2500
2016-10-28T09:28:34.859Z,2610
2016-10-28T09:29:34.804Z,2195
2016-10-28T09:30:34.808Z,2090
2016-10-28T09:31:34.833Z,2065
2016-10-28T09:32:34.827Z,2015
2016-10-28T09:33:34.815Z,2140
2016-10-28T09:34:34.795Z,2055
2016-10-28T09:35:34.785Z,2170
2016-10-28T09:36:35.042Z,2215
2016-10-28T09:37:34.728Z,2175
2016-10-28T09:38:35.203Z,2390
2016-10-28T09:39:34.740Z,2425
2016-10-28T09:40:34.830Z,1935
2016-10-28T09:41:34.723Z,2040
2016-10-28T09:42:34.732Z,2485
2016-10-28T09:43:34.719Z,2355
2016-10-28T09:44:34.760Z,2095
2016-10-28T09:45:34.732Z,1815
2016-10-28T09:46:34.685Z,1985
2016-10-28T09:47:34.717Z,2190
2016-10-28T09:48:34.663Z,2520
2016-10-28T09:49:34.699Z,2715
2016-10-28T09:50:34.900Z,1620
2016-10-28T09:51:34.689Z,1970
2016-10-28T09:52:34.659Z,2065
2016-10-28T09:53:34.670Z,2070
2016-10-28T09:54:34.982Z,2345
2016-10-28T09:55:34.617Z,2570
2016-10-28T09:56:34.632Z,2480
2016-10-28T09:57:34.632Z,2380
2016-10-28T09:58:34.665Z,2210
2016-10-28T09:59:34.939Z,1940
2016-10-28T10:00:34.643Z,2000
2016-10-28T10:01:34.616Z,2005
2016-10-28T10:02:34.592Z,2030
2016-10-28T10:03:34.648Z,2055
2016-10-28T10:04:34.553Z,2160
2016-10-28T10:05:34.667Z,2250
2016-10-28T10:06:34.567Z,2270
2016-10-28T10:07:34.590Z,2225
2016-10-28T10:08:34.557Z,2355
2016-10-28T10:09:34.543Z,2415
2016-10-28T10:10:34.597Z,2415
2016-10-28T10:11:34.530Z,2385
2016-10-28T10:12:34.542Z,2090
2016-10-28T10:13:34.592Z,1980
2016-10-28T10:14:34.564Z,2235
2016-10-28T10:15:34.546Z,2615
2016-10-28T10:16:34.529Z,2560
2016-10-28T10:17:34.548Z,2260
2016-10-28T10:18:34.524Z,2455
2016-10-28T10:19:34.505Z,2435
2016-10-28T10:20:34.499Z,2255
2016-10-28T10:21:34.716Z,2270
2016-10-28T10:22:34.485Z,2105
2016-10-28T10:23:34.652Z,1725
2016-10-28T10:24:34.893Z,1670
2016-10-28T10:25:34.705Z,2070
2016-10-28T10:26:34.870Z,2300
2016-10-28T10:27:34.535Z,2225
2016-10-28T10:28:34.484Z,2320
2016-10-28T10:29:34.457Z,2025
2016-10-28T10:30:34.453Z,2055
2016-10-28T10:31:34.507Z,2815
2016-10-28T10:32:34.457Z,3010
2016-10-28T10:33:34.428Z,2115
2016-10-28T10:34:34.412Z,1610
2016-10-28T10:35:34.410Z,1430
2016-10-28T10:36:34.398Z,1400
2016-10-28T10:37:34.421Z,1370
2016-10-28T10:38:34.419Z,1365
2016-10-28T10:39:34.423Z,1405
2016-10-28T10:40:34.385Z,1395
2016-10-28T10:41:34.408Z,1525
2016-10-28T10:42:34.654Z,1790
2016-10-28T10:43:34.345Z,2330
2016-10-28T10:44:34.357Z,2995
2016-10-28T10:45:34.320Z,2830
2016-10-28T10:46:34.364Z,2530
2016-10-28T10:47:34.311Z,2550
2016-10-28T10:48:34.309Z,2530
2016-10-28T10:49:34.284Z,2530
2016-10-28T10:50:34.356Z,2510
2016-10-28T10:51:34.353Z,2545
2016-10-28T10:52:34.314Z,2640
2016-10-28T10:53:34.289Z,2545
2016-10-28T10:54:34.264Z,2275
2016-10-28T10:55:34.263Z,2440
2016-10-28T10:56:34.522Z,2450
2016-10-28T10:57:49.367Z,2405
2016-10-28T10:58:34.264Z,2485
2016-10-28T10:59:34.327Z,2495
2016-10-28T11:00:34.226Z,2565
2016-10-28T11:01:34.232Z,2450
2016-10-28T11:02:34.383Z,2595
2016-10-28T11:03:34.246Z,2715
2016-10-28T11:04:34.260Z,2600
2016-10-28T11:05:34.272Z,2630
2016-10-28T11:06:34.262Z,2675
2016-10-28T11:07:34.218Z,2535
2016-10-28T11:08:34.300Z,2780
2016-10-28T11:09:34.208Z,3170
2016-10-28T11:10:34.208Z,2870
2016-10-28T11:11:34.191Z,2690
2016-10-28T11:12:34.222Z,2825
2016-10-28T11:13:34.193Z,2610
2016-10-28T11:14:34.204Z,2375
2016-10-28T11:15:34.187Z,2580
2016-10-28T11:16:34.233Z,2845
2016-10-28T11:17:34.145Z,2665
2016-10-28T11:18:34.135Z,2575
2016-10-28T11:19:34.175Z,2430
2016-10-28T11:20:34.143Z,2450
2016-10-28T11:21:34.141Z,2440
2016-10-28T11:22:34.142Z,2315
2016-10-28T11:23:34.170Z,2205
2016-10-28T11:24:34.138Z,2335
2016-10-28T11:25:34.110Z,2450
2016-10-28T11:26:34.089Z,2320
2016-10-28T11:27:34.089Z,2315
2016-10-28T11:28:34.125Z,2535
2016-10-28T11:29:34.310Z,2945
2016-10-28T11:30:34.308Z,2875
2016-10-28T11:31:34.143Z,2435
2016-10-28T11:32:34.072Z,2455
2016-10-28T11:33:34.037Z,2225
2016-10-28T11:34:34.070Z,2410
2016-10-28T11:35:34.059Z,2335
2016-10-28T11:36:34.043Z,2410
2016-10-28T11:37:34.033Z,2280
2016-10-28T11:38:34.030Z,2335
2016-10-28T11:39:34.036Z,2235
2016-10-28T11:40:34.003Z,2165
2016-10-28T11:41:33.983Z,2280
2016-10-28T11:42:34.283Z,2025
2016-10-28T11:43:33.976Z,1965
2016-10-28T11:44:33.980Z,2275
2016-10-28T11:45:33.942Z,2310
2016-10-28T11:46:33.976Z,2090
2016-10-28T11:47:33.937Z,2250
2016-10-28T11:48:33.943Z,2375
2016-10-28T11:49:33.931Z,2345
2016-10-28T11:50:33.929Z,2450
2016-10-28T11:51:34.221Z,2320
2016-10-28T11:52:33.930Z,2420
2016-10-28T11:53:33.903Z,2470
2016-10-28T11:54:33.881Z,2250
2016-10-28T11:55:33.894Z,2310
2016-10-28T11:56:33.867Z,2335
2016-10-28T11:57:33.856Z,2390
2016-10-28T11:58:33.879Z,2645
2016-10-28T11:59:33.879Z,2435
2016-10-28T12:00:34.391Z,2265
2016-10-28T12:01:33.802Z,2590
2016-10-28T12:02:33.843Z,2690
2016-10-28T12:03:33.824Z,2465
2016-10-28T12:04:33.801Z,2120
2016-10-28T12:05:33.760Z,2195
2016-10-28T12:06:33.847Z,2385
2016-10-28T12:07:33.776Z,2265
2016-10-28T12:08:34.036Z,2260
2016-10-28T12:09:33.764Z,2340
2016-10-28T12:10:34.089Z,2250
2016-10-28T12:11:33.746Z,2225
2016-10-28T12:12:33.737Z,1940
2016-10-28T12:13:33.727Z,2170
2016-10-28T12:14:33.672Z,1735
2016-10-28T12:15:33.667Z,1015
2016-10-28T12:16:33.680Z,870
2016-10-28T12:17:33.663Z,940
2016-10-28T12:18:33.633Z,820
2016-10-28T12:19:33.655Z,890
2016-10-28T12:20:33.655Z,1120
2016-10-28T12:21:33.648Z,1435
2016-10-28T12:22:33.611Z,1690
2016-10-28T12:23:33.609Z,1920
2016-10-28T12:24:33.552Z,2125
2016-10-28T12:25:33.613Z,2655
2016-10-28T12:26:33.588Z,2620
2016-10-28T12:27:33.562Z,2005
2016-10-28T12:28:33.575Z,1835
2016-10-28T12:29:33.571Z,1760
2016-10-28T12:30:33.530Z,1825
2016-10-28T12:31:33.522Z,1775
2016-10-28T12:32:33.531Z,1665
2016-10-28T12:33:33.497Z,1665
2016-10-28T12:34:33.492Z,1930
2016-10-28T12:35:33.526Z,2030
2016-10-28T12:36:33.461Z,2380
2016-10-28T12:37:33.492Z,2415
2016-10-28T12:38:33.470Z,2190
2016-10-28T12:39:33.516Z,1960
2016-10-28T12:40:33.443Z,2060
2016-10-28T12:41:33.474Z,1755
2016-10-28T12:42:33.412Z,1700
2016-10-28T12:43:33.403Z,1380
2016-10-28T12:44:33.445Z,970
2016-10-28T12:45:33.386Z,1000
2016-10-28T12:46:33.404Z,855
2016-10-28T12:47:33.400Z,780
2016-10-28T12:48:33.359Z,750
2016-10-28T12:49:33.400Z,690
2016-10-28T12:50:33.319Z,760
2016-10-28T12:51:33.338Z,650
2016-10-28T12:52:33.349Z,720
2016-10-28T12:53:33.381Z,940
2016-10-28T12:54:33.330Z,1215
2016-10-28T12:55:33.753Z,2785
2016-10-28T12:56:33.619Z,2840
2016-10-28T12:57:33.232Z,3150
2016-10-28T12:58:33.287Z,3285
2016-10-28T12:59:33.261Z,3000
2016-10-28T13:00:33.240Z,2780
2016-10-28T13:01:33.259Z,3095
2016-10-28T13:02:33.190Z,3230
2016-10-28T13:03:33.210Z,3085
2016-10-28T13:04:33.204Z,3220
2016-10-28T13:05:33.159Z,2995
2016-10-28T13:06:33.176Z,2745
2016-10-28T13:07:33.164Z,2600
2016-10-28T13:08:33.160Z,2810
2016-10-28T13:09:33.175Z,3045
2016-10-28T13:10:33.100Z,2800
2016-10-28T13:11:33.163Z,2550
2016-10-28T13:12:33.172Z,2270
2016-10-28T13:13:33.083Z,2350
2016-10-28T13:14:33.078Z,2395
2016-10-28T13:15:33.110Z,2190
2016-10-28T13:16:33.087Z,2040
2016-10-28T13:17:33.094Z,1945
2016-10-28T13:18:33.058Z,2190
2016-10-28T13:19:33.055Z,2075
2016-10-28T13:20:33.070Z,1960
2016-10-28T13:21:33.023Z,1855
2016-10-28T13:22:32.982Z,1675
2016-10-28T13:23:33.002Z,1585
2016-10-28T13:24:33.013Z,1575
2016-10-28T13:25:32.973Z,1980
2016-10-28T13:26:33.017Z,1910
2016-10-28T13:27:32.983Z,1895
2016-10-28T13:28:32.975Z,2200
2016-10-28T13:29:32.996Z,2150
2016-10-28T13:30:32.984Z,1890
2016-10-28T13:31:32.945Z,1890
2016-10-28T13:32:32.929Z,1855
2016-10-28T13:33:32.895Z,1775
2016-10-28T13:34:32.897Z,1920
2016-10-28T13:35:32.958Z,2155
2016-10-28T13:36:32.919Z,1985
2016-10-28T13:37:32.870Z,1900
2016-10-28T13:38:32.880Z,1895
2016-10-28T13:39:32.913Z,1765
2016-10-28T13:40:32.908Z,1690
2016-10-28T13:41:32.930Z,1565
2016-10-28T13:42:32.858Z,1545
2016-10-28T13:43:32.814Z,1680
2016-10-28T13:44:32.826Z,1465
2016-10-28T13:45:32.802Z,1400
2016-10-28T13:46:32.807Z,1610
2016-10-28T13:47:32.831Z,1575
2016-10-28T13:48:32.789Z,1485
2016-10-28T13:49:32.787Z,1465
2016-10-28T13:50:32.745Z,1500
2016-10-28T13:51:32.769Z,1585
2016-10-28T13:52:32.715Z,1460
2016-10-28T13:53:32.680Z,1370
2016-10-28T13:54:32.721Z,1335
2016-10-28T13:55:32.753Z,1440
2016-10-28T13:56:32.687Z,1340
2016-10-28T13:57:32.742Z,1370